Bookmark and Share
Track history (hours):
 

Schillplate

Last reported at 2014-Apr-24 08:33 UTC. Time now 2014-Apr-24 09:28 UTC.
Position N 59°34' E 023°33'.

Length 86 m; draft 5 m.

Type: Cargo ship. MMSI: 236111603.

NotesDate/timePositionNaut miles runAvg speedWind from/ knotsBaromVisibWave heightAir tempDewpointWater temp
2014-Apr-24 08:33N 59°34' E 023°33'1211.4
2014-Apr-24 07:31N 59°30' E 023°11'4710.9
2014-Apr-24 03:14N 59°29' E 021°39'811.4
2014-Apr-24 02:33N 59°32' E 021°24'  
2014-Apr-17 23:33N 55°36' E 015°18'1111.1
2014-Apr-17 22:34N 55°30' E 015°01'1111.1
2014-Apr-17 21:33N 55°25' E 014°44'1111.3
2014-Apr-17 20:34N 55°17' E 014°30'1111.3
2014-Apr-17 19:34N 55°08' E 014°17'1211.6
2014-Apr-17 18:33N 55°00' E 014°02'1211.7
2014-Apr-17 17:33N 54°56' E 013°43'1211.3
2014-Apr-17 16:32N 54°52' E 013°24'1111.0
2014-Apr-17 15:33N 54°49' E 013°06'1110.9
2014-Apr-17 14:33N 54°45' E 012°49'1111.3
2014-Apr-17 13:33N 54°40' E 012°32'1111.1
2014-Apr-17 12:33N 54°32' E 012°17'1010.0
2014-Apr-17 11:33N 54°25' E 012°05'1111.1
2014-Apr-17 10:34N 54°25' E 011°47'1110.7
2014-Apr-17 09:34N 54°29' E 011°30'1111.1
2014-Apr-17 08:33N 54°34' E 011°12'59 8.1
2014-Apr-17 01:17N 54°14' E 009°36'6 8.1
2014-Apr-17 00:33N 54°11' E 009°28'5 5.3
2014-Apr-16 23:33N 54°08' E 009°20'8 8.3
2014-Apr-16 22:34N 54°00' E 009°18'7 6.8
2014-Apr-16 21:33N 53°55' E 009°11'5 4.7
2014-Apr-16 20:33N 53°52' E 009°04'7 7.4
2014-Apr-16 19:33N 53°50' E 008°52'7 7.0
2014-Apr-16 18:34N 53°54' E 008°41'7 7.2
2014-Apr-16 17:33N 53°58' E 008°32'8 7.9
2014-Apr-16 16:33N 53°59' E 008°18'10 9.9
2014-Apr-16 15:34N 53°58' E 008°02'9 9.3
2014-Apr-16 14:33N 53°49' E 008°07'1313.0
2014-Apr-16 13:33N 53°40' E 008°23'10 9.8
2014-Apr-16 12:34N 53°33' E 008°34'8 8.3
2014-Apr-16 11:33N 53°25' E 008°30'9 9.0
2014-Apr-16 10:33N 53°16' E 008°29'8 8.1
2014-Apr-16 09:33N 53°10' E 008°38'4 3.8
2014-Apr-16 08:33N 53°07' E 008°43'0 0.3
2014-Apr-16 07:33N 53°07' E 008°43'0 0.0
2014-Apr-16 06:33N 53°07' E 008°43'0 0.0
2014-Apr-16 05:33N 53°07' E 008°43'0 0.0
2014-Apr-16 04:33N 53°07' E 008°43'0 0.0
2014-Apr-16 03:33N 53°07' E 008°43'0 0.0
2014-Apr-16 02:33N 53°07' E 008°43'0 0.0
2014-Apr-16 01:33N 53°07' E 008°43'0 0.0
2014-Apr-16 00:33N 53°07' E 008°43'0 0.0
2014-Apr-15 23:33N 53°07' E 008°43'0 0.0
2014-Apr-15 22:33N 53°07' E 008°43'0 0.0
2014-Apr-15 21:33N 53°07' E 008°43'0 0.0
2014-Apr-15 20:33N 53°07' E 008°43'0 0.0
2014-Apr-15 19:33N 53°07' E 008°43'0 0.0
2014-Apr-15 18:33N 53°07' E 008°43'0 0.0
2014-Apr-15 17:33N 53°07' E 008°43'0 0.0
2014-Apr-15 16:33N 53°07' E 008°43'0 0.0
2014-Apr-15 15:33N 53°07' E 008°43'0 0.0
2014-Apr-15 14:33N 53°07' E 008°43'0 0.0
2014-Apr-15 12:34N 53°07' E 008°43'0 0.3
2014-Apr-15 11:34N 53°07' E 008°43'2 1.7
2014-Apr-15 10:34N 53°08' E 008°40'1110.9
2014-Apr-15 09:33N 53°16' E 008°29'1414.2
2014-Apr-15 08:34N 53°31' E 008°31'2 1.6
2014-Apr-15 07:31N 53°31' E 008°34'0 0.1
2014-Apr-15 06:31N 53°31' E 008°34'0 0.1
2014-Apr-15 05:31N 53°32' E 008°34'0 0.0
2014-Apr-15 03:31N 53°32' E 008°34'0 0.0
2014-Apr-15 02:31N 53°32' E 008°34'0 0.0
2014-Apr-15 01:31N 53°32' E 008°34'0 0.1
2014-Apr-15 00:31N 53°31' E 008°34'0 0.0
2014-Apr-14 23:31N 53°31' E 008°34'0 0.0
2014-Apr-14 22:31N 53°31' E 008°34'0 0.0
2014-Apr-14 21:31N 53°31' E 008°34'0 0.0
2014-Apr-14 20:31N 53°31' E 008°34'0 0.0
2014-Apr-14 19:31N 53°31' E 008°34'0 0.0
2014-Apr-14 18:31N 53°31' E 008°34'0 0.1
2014-Apr-14 17:31N 53°31' E 008°34'0 0.1
2014-Apr-14 16:31N 53°32' E 008°34'0 0.0
2014-Apr-14 15:31N 53°32' E 008°34'0 0.0
2014-Apr-14 14:31N 53°32' E 008°34'0 0.1
2014-Apr-14 13:31N 53°31' E 008°34'0 0.1
2014-Apr-14 11:31N 53°31' E 008°34'0 0.0
2014-Apr-14 10:31N 53°31' E 008°34'0 0.0
2014-Apr-14 09:31N 53°31' E 008°34'  

Dump ship's entire track history

sailing weather and tide predictions

Schillplate — ZDJJ8 — position and weather